Evelyn Maersk — OXHV2 — position and weather

sailwx.info

Track history (hours):
 
Tides and Currents Weather Stations Pressure Air Temp Water Temp Dewpoint Dewpoint Depression Visibility Wind Speed Wind Dir Waves Ship Positions

Evelyn Maersk

Last reported at 2017-May-22 09:34 UTC. Time now 2017-May-22 19:19 UTC.
Position N 01°57' E 102°15'.

Length 398 m; draft 15.5 m.

Type: Ship (hazmat cat A). MMSI: 220496000.

Date/timePositionNaut miles runAvg speedWind from/ knotsBaromVisibWave heightAir tempDewpointWater temp
2017-May-22 09:34N 01°57' E 102°15'117.5
2017-May-22 09:29N 01°56' E 102°16'817.1
2017-May-22 09:00N 01°52' E 102°23'917.5
2017-May-22 08:30N 01°49' E 102°31'917.8
2017-May-22 08:01N 01°45' E 102°39'1018.2
2017-May-22 07:28N 01°41' E 102°48'2918.8
2017-May-22 05:56N 01°24' E 103°11'1013.2
2017-May-22 05:10N 01°18' E 103°20'213.3
2017-May-22 04:59N 01°17' E 103°22'613.1
2017-May-22 04:30N 01°14' E 103°27'511.0
2017-May-22 04:00N 01°16' E 103°33'4 7.1
2017-May-22 03:27N 01°20' E 103°33'0 0.1
2017-May-22 02:45N 01°20' E 103°33'0 0.0
2017-May-22 02:30N 01°20' E 103°33'0 0.0
2017-May-22 02:00N 01°20' E 103°33'0 0.0
2017-May-22 01:27N 01°20' E 103°33'0 0.0
2017-May-22 01:00N 01°20' E 103°33'0 0.0
2017-May-22 00:27N 01°20' E 103°33'0 0.0
2017-May-21 23:27N 01°20' E 103°33'0 0.0
2017-May-21 22:54N 01°20' E 103°33'0 0.0
2017-May-21 22:30N 01°20' E 103°33'0 0.0
2017-May-21 21:42N 01°20' E 103°33'0 0.0
2017-May-21 21:30N 01°20' E 103°33'0 0.0
2017-May-21 20:54N 01°20' E 103°33'0 0.0
2017-May-21 20:27N 01°20' E 103°33'0 0.0
2017-May-21 20:00N 01°20' E 103°33'0 0.0
2017-May-21 19:15N 01°20' E 103°33'0 0.0
2017-May-21 19:00N 01°20' E 103°33'0 0.0
2017-May-21 18:30N 01°20' E 103°33'0 0.0
2017-May-21 18:00N 01°20' E 103°33'0 0.0
2017-May-21 17:30N 01°20' E 103°33'0 0.0
2017-May-21 17:00N 01°20' E 103°33'0 0.0
2017-May-21 16:24N 01°20' E 103°33'0 0.0
2017-May-21 16:00N 01°20' E 103°33'0 0.0
2017-May-21 15:30N 01°20' E 103°33'0 0.0
2017-May-21 14:48N 01°20' E 103°33'0 0.0
2017-May-21 14:27N 01°20' E 103°33'0 0.0
2017-May-21 13:30N 01°20' E 103°33'0 0.0
2017-May-21 12:57N 01°20' E 103°33'0 0.0
2017-May-21 12:30N 01°20' E 103°33'1 2.6
2017-May-21 12:00N 01°19' E 103°33'1 2.4
2017-May-21 11:27N 01°20' E 103°33'0 0.0
2017-May-21 11:00N 01°20' E 103°33'0 0.0
2017-May-21 10:09N 01°20' E 103°33'0 0.0
2017-May-21 09:57N 01°20' E 103°33'0 0.0
2017-May-21 08:45N 01°20' E 103°33'0 0.0
2017-May-21 08:24N 01°20' E 103°33'0 0.0
2017-May-21 07:33N 01°20' E 103°33'0 0.0
2017-May-21 07:30N 01°20' E 103°33'0 0.0
2017-May-21 07:00N 01°20' E 103°33'0 0.0
2017-May-21 06:24N 01°20' E 103°33'0 0.0
2017-May-21 06:00N 01°20' E 103°33'0 0.0
2017-May-21 05:18N 01°20' E 103°33'0 0.0
2017-May-21 05:00N 01°20' E 103°33'0 0.6
2017-May-21 04:31N 01°20' E 103°33'4 8.1
2017-May-21 04:00N 01°16' E 103°33'2 4.9
2017-May-21 03:31N 01°14' E 103°31'1 1.7
2017-May-21 02:43N 01°15' E 103°30'0 0.0
2017-May-21 02:25N 01°15' E 103°30'0 0.0
2017-May-21 01:49N 01°15' E 103°30'0 0.0
2017-May-21 01:25N 01°15' E 103°30'0 0.3
2017-May-21 00:52N 01°15' E 103°30'0 0.4
2017-May-21 00:31N 01°15' E 103°30'3 5.7
2017-May-21 00:00N 01°13' E 103°32'4 7.0
2017-May-20 23:30N 01°12' E 103°35'4 7.1
2017-May-20 23:00N 01°11' E 103°39'4 7.7
2017-May-20 22:30N 01°09' E 103°42'3 6.3
2017-May-20 22:01N 01°09' E 103°45'4 7.4
2017-May-20 21:30N 01°11' E 103°49'4 7.7
2017-May-20 21:00N 01°12' E 103°52'4 7.4
2017-May-20 20:30N 01°14' E 103°56'4 7.8
2017-May-20 20:00N 01°15' E 103°59'4 7.8
2017-May-20 19:30N 01°16' E 104°03'5 8.4
2017-May-20 18:57N 01°16' E 104°08'4 9.1
2017-May-20 18:29N 01°17' E 104°12'11 9.0
2017-May-20 17:18N 01°21' E 104°22'  
2017-May-14 11:19N 29°52' E 122°13'45 3.3
2017-May-13 21:37N 29°60' E 123°04'111.3
2017-May-13 21:30N 30°01' E 123°04'811.6
2017-May-13 20:46N 30°09' E 123°03'611.4
2017-May-13 20:15N 30°15' E 123°02'711.5
2017-May-13 19:40N 30°20' E 122°57'211.7
2017-May-13 19:29N 30°22' E 122°55'911.5
2017-May-13 18:43N 30°27' E 122°47'411.2
2017-May-13 18:24N 30°28' E 122°43'511.4
2017-May-13 17:57N 30°29' E 122°37'510.6
2017-May-13 17:30N 30°30' E 122°32'915.6
2017-May-13 16:55N 30°32' E 122°21'611.9
2017-May-13 16:23N 30°33' E 122°14'512.9
2017-May-13 16:00N 30°35' E 122°09'510.3
2017-May-13 15:30N 30°37' E 122°03'1 1.6
2017-May-13 14:59N 30°38' E 122°03'0 0.0
2017-May-13 13:53N 30°38' E 122°03'0 0.0
2017-May-13 13:26N 30°38' E 122°03'0 0.0
2017-May-13 12:47N 30°38' E 122°03'0 0.0
2017-May-13 12:23N 30°38' E 122°03'0 0.0
2017-May-13 11:56N 30°38' E 122°03'0 0.0
2017-May-13 11:29N 30°38' E 122°03'0 0.0
2017-May-13 10:59N 30°38' E 122°03'0 0.0
2017-May-13 10:29N 30°38' E 122°03'0 0.0
2017-May-13 09:26N 30°38' E 122°03'0 0.0
2017-May-13 00:53N 30°38' E 122°03'0 0.0
2017-May-13 00:24N 30°38' E 122°03'0 0.4
2017-May-12 23:46N 30°38' E 122°03'0 0.7
2017-May-12 23:30N 30°38' E 122°03'3 6.1
2017-May-12 23:00N 30°36' E 122°06'510.0
2017-May-12 22:31N 30°34' E 122°11'5 9.9
2017-May-12 22:00N 30°33' E 122°17'4 7.6
2017-May-12 21:30N 30°33' E 122°21'5 9.7
2017-May-12 21:00N 30°32' E 122°27'5 9.8
2017-May-12 20:26N 30°32' E 122°33'1410.1
2017-May-12 19:02N 30°35' E 122°49'110.1
2017-May-12 18:59N 30°35' E 122°50'1210.0
2017-May-12 17:47N 30°37' E 123°04'310.1
2017-May-12 17:31N 30°37' E 123°07'  
Track history (hours):
 
Tides and Currents Weather Stations Pressure Air Temp Water Temp Dewpoint Dewpoint Depression Visibility Wind Speed Wind Dir Waves Ship Positions

Evelyn Maersk

Last reported at 2017-May-22 09:34 UTC. Time now 2017-May-22 19:19 UTC.
Position N 01°57' E 102°15'.

Length 398 m; draft 15.5 m.

Type: Ship (hazmat cat A). MMSI: 220496000.

Date/timePositionNaut miles runAvg speedWind from/ knotsBaromVisibWave heightAir tempDewpointWater temp
2017-May-22 09:34N 01°57' E 102°15'117.5
2017-May-22 09:29N 01°56' E 102°16'817.1
2017-May-22 09:00N 01°52' E 102°23'917.5
2017-May-22 08:30N 01°49' E 102°31'917.8
2017-May-22 08:01N 01°45' E 102°39'1018.2
2017-May-22 07:28N 01°41' E 102°48'2918.8
2017-May-22 05:56N 01°24' E 103°11'1013.2
2017-May-22 05:10N 01°18' E 103°20'213.3
2017-May-22 04:59N 01°17' E 103°22'613.1
2017-May-22 04:30N 01°14' E 103°27'511.0
2017-May-22 04:00N 01°16' E 103°33'4 7.1
2017-May-22 03:27N 01°20' E 103°33'0 0.1
2017-May-22 02:45N 01°20' E 103°33'0 0.0
2017-May-22 02:30N 01°20' E 103°33'0 0.0
2017-May-22 02:00N 01°20' E 103°33'0 0.0
2017-May-22 01:27N 01°20' E 103°33'0 0.0
2017-May-22 01:00N 01°20' E 103°33'0 0.0
2017-May-22 00:27N 01°20' E 103°33'0 0.0
2017-May-21 23:27N 01°20' E 103°33'0 0.0
2017-May-21 22:54N 01°20' E 103°33'0 0.0
2017-May-21 22:30N 01°20' E 103°33'0 0.0
2017-May-21 21:42N 01°20' E 103°33'0 0.0
2017-May-21 21:30N 01°20' E 103°33'0 0.0
2017-May-21 20:54N 01°20' E 103°33'0 0.0
2017-May-21 20:27N 01°20' E 103°33'0 0.0
2017-May-21 20:00N 01°20' E 103°33'0 0.0
2017-May-21 19:15N 01°20' E 103°33'0 0.0
2017-May-21 19:00N 01°20' E 103°33'0 0.0
2017-May-21 18:30N 01°20' E 103°33'0 0.0
2017-May-21 18:00N 01°20' E 103°33'0 0.0
2017-May-21 17:30N 01°20' E 103°33'0 0.0
2017-May-21 17:00N 01°20' E 103°33'0 0.0
2017-May-21 16:24N 01°20' E 103°33'0 0.0
2017-May-21 16:00N 01°20' E 103°33'0 0.0
2017-May-21 15:30N 01°20' E 103°33'0 0.0
2017-May-21 14:48N 01°20' E 103°33'0 0.0
2017-May-21 14:27N 01°20' E 103°33'0 0.0
2017-May-21 13:30N 01°20' E 103°33'0 0.0
2017-May-21 12:57N 01°20' E 103°33'0 0.0
2017-May-21 12:30N 01°20' E 103°33'1 2.6
2017-May-21 12:00N 01°19' E 103°33'1 2.4
2017-May-21 11:27N 01°20' E 103°33'0 0.0
2017-May-21 11:00N 01°20' E 103°33'0 0.0
2017-May-21 10:09N 01°20' E 103°33'0 0.0
2017-May-21 09:57N 01°20' E 103°33'0 0.0
2017-May-21 08:45N 01°20' E 103°33'0 0.0
2017-May-21 08:24N 01°20' E 103°33'0 0.0
2017-May-21 07:33N 01°20' E 103°33'0 0.0
2017-May-21 07:30N 01°20' E 103°33'0 0.0
2017-May-21 07:00N 01°20' E 103°33'0 0.0
2017-May-21 06:24N 01°20' E 103°33'0 0.0
2017-May-21 06:00N 01°20' E 103°33'0 0.0
2017-May-21 05:18N 01°20' E 103°33'0 0.0
2017-May-21 05:00N 01°20' E 103°33'0 0.6
2017-May-21 04:31N 01°20' E 103°33'4 8.1
2017-May-21 04:00N 01°16' E 103°33'2 4.9
2017-May-21 03:31N 01°14' E 103°31'1 1.7
2017-May-21 02:43N 01°15' E 103°30'0 0.0
2017-May-21 02:25N 01°15' E 103°30'0 0.0
2017-May-21 01:49N 01°15' E 103°30'0 0.0
2017-May-21 01:25N 01°15' E 103°30'0 0.3
2017-May-21 00:52N 01°15' E 103°30'0 0.4
2017-May-21 00:31N 01°15' E 103°30'3 5.7
2017-May-21 00:00N 01°13' E 103°32'4 7.0
2017-May-20 23:30N 01°12' E 103°35'4 7.1
2017-May-20 23:00N 01°11' E 103°39'4 7.7
2017-May-20 22:30N 01°09' E 103°42'3 6.3
2017-May-20 22:01N 01°09' E 103°45'4 7.4
2017-May-20 21:30N 01°11' E 103°49'4 7.7
2017-May-20 21:00N 01°12' E 103°52'4 7.4
2017-May-20 20:30N 01°14' E 103°56'4 7.8
2017-May-20 20:00N 01°15' E 103°59'4 7.8
2017-May-20 19:30N 01°16' E 104°03'5 8.4
2017-May-20 18:57N 01°16' E 104°08'4 9.1
2017-May-20 18:29N 01°17' E 104°12'11 9.0
2017-May-20 17:18N 01°21' E 104°22'  
2017-May-14 11:19N 29°52' E 122°13'45 3.3
2017-May-13 21:37N 29°60' E 123°04'111.3
2017-May-13 21:30N 30°01' E 123°04'811.6
2017-May-13 20:46N 30°09' E 123°03'611.4
2017-May-13 20:15N 30°15' E 123°02'711.5
2017-May-13 19:40N 30°20' E 122°57'211.7
2017-May-13 19:29N 30°22' E 122°55'911.5
2017-May-13 18:43N 30°27' E 122°47'411.2
2017-May-13 18:24N 30°28' E 122°43'511.4
2017-May-13 17:57N 30°29' E 122°37'510.6
2017-May-13 17:30N 30°30' E 122°32'915.6
2017-May-13 16:55N 30°32' E 122°21'611.9
2017-May-13 16:23N 30°33' E 122°14'512.9
2017-May-13 16:00N 30°35' E 122°09'510.3
2017-May-13 15:30N 30°37' E 122°03'1 1.6
2017-May-13 14:59N 30°38' E 122°03'0 0.0
2017-May-13 13:53N 30°38' E 122°03'0 0.0
2017-May-13 13:26N 30°38' E 122°03'0 0.0
2017-May-13 12:47N 30°38' E 122°03'0 0.0
2017-May-13 12:23N 30°38' E 122°03'0 0.0
2017-May-13 11:56N 30°38' E 122°03'0 0.0
2017-May-13 11:29N 30°38' E 122°03'0 0.0
2017-May-13 10:59N 30°38' E 122°03'0 0.0
2017-May-13 10:29N 30°38' E 122°03'0 0.0
2017-May-13 09:26N 30°38' E 122°03'0 0.0
2017-May-13 00:53N 30°38' E 122°03'0 0.0
2017-May-13 00:24N 30°38' E 122°03'0 0.4
2017-May-12 23:46N 30°38' E 122°03'0 0.7
2017-May-12 23:30N 30°38' E 122°03'3 6.1
2017-May-12 23:00N 30°36' E 122°06'510.0
2017-May-12 22:31N 30°34' E 122°11'5 9.9
2017-May-12 22:00N 30°33' E 122°17'4 7.6
2017-May-12 21:30N 30°33' E 122°21'5 9.7
2017-May-12 21:00N 30°32' E 122°27'5 9.8
2017-May-12 20:26N 30°32' E 122°33'1410.1
2017-May-12 19:02N 30°35' E 122°49'110.1
2017-May-12 18:59N 30°35' E 122°50'1210.0
2017-May-12 17:47N 30°37' E 123°04'310.1
2017-May-12 17:31N 30°37' E 123°07'  

Dump ship's entire track history